Time;durP1;ratioP1;P1;durP2;ratioP2;P2;SDS_P1;SDS_P2;PMS_P1;PMS_P2;Temp;Humidity;BMP_temperature;BMP_pressure;BME280_temperature;BME280_humidity;BME280_pressure;Samples;Min_cycle;Max_cycle;Signal;HPM_P1;HPM_P2
2021/10/26 00:01:50;;;;;;;7.85;5.15;;;;;;;;;;5104242;28;20036;-62
2021/10/26 00:04:15;;;;;;;5.72;5.10;;;;;;;;;;5105437;28;20055;-62
2021/10/26 00:06:41;;;;;;;11.90;9.18;;;;;;;;;;5106398;28;20584;-61
2021/10/26 00:09:06;;;;;;;7.95;5.93;;;;;;;;;;5102049;28;20043;-62
2021/10/26 00:11:32;;;;;;;7.55;5.53;;;;;;;;;;5105295;28;20100;-62
2021/10/26 00:13:58;;;;;;;7.28;6.00;;;;;;;;;;5104096;28;20042;-62
2021/10/26 00:16:24;;;;;;;4.78;4.38;;;;;;;;;;5103180;28;20028;-61
2021/10/26 00:18:49;;;;;;;6.25;5.25;;;;;;;;;;5103744;28;20577;-62
2021/10/26 00:21:15;;;;;;;6.53;5.82;;;;;;;;;;5102480;28;20098;-62
2021/10/26 00:23:40;;;;;;;6.22;5.60;;;;;;;;;;5102124;28;20524;-62
2021/10/26 00:26:06;;;;;;;6.70;6.00;;;;;;;;;;5104132;28;20071;-62
2021/10/26 00:28:33;;;;;;;9.98;5.53;;;;;;;;;;5103544;28;20104;-62
2021/10/26 00:30:58;;;;;;;6.65;5.95;;;;;;;;;;5102051;28;20036;-62
2021/10/26 00:33:24;;;;;;;12.93;6.80;;;;;;;;;;5102615;28;20032;-63
2021/10/26 00:35:50;;;;;;;5.30;4.80;;;;;;;;;;5104931;28;20039;-62
2021/10/26 00:38:16;;;;;;;7.43;5.32;;;;;;;;;;5105647;28;20027;-62
2021/10/26 00:40:46;;;;;;;6.43;5.85;;;;;;;;;;5104194;28;20439;-62
2021/10/26 00:43:11;;;;;;;10.80;5.45;;;;;;;;;;5103888;28;20085;-62
2021/10/26 00:45:37;;;;;;;6.05;5.45;;;;;;;;;;5104767;28;20035;-62
2021/10/26 00:48:02;;;;;;;8.15;6.43;;;;;;;;;;5106020;28;20032;-62
2021/10/26 00:50:28;;;;;;;6.00;5.38;;;;;;;;;;5104333;28;20063;-62
2021/10/26 00:52:53;;;;;;;6.05;5.45;;;;;;;;;;5102362;28;20119;-62
2021/10/26 00:55:19;;;;;;;9.25;7.20;;;;;;;;;;5092635;28;20020;-62
2021/10/26 00:57:46;;;;;;;5.97;4.38;;;;;;;;;;5103828;28;20031;-62
2021/10/26 01:00:13;;;;;;;7.97;6.57;;;;;;;;;;5104150;28;20515;-62
2021/10/26 01:02:41;;;;;;;6.05;5.45;;;;;;;;;;5102740;28;20035;-62
2021/10/26 01:05:07;;;;;;;8.80;6.05;;;;;;;;;;5085973;28;20043;-62
2021/10/26 01:07:32;;;;;;;5.32;4.82;;;;;;;;;;5106945;28;20031;-64
2021/10/26 01:09:58;;;;;;;8.60;6.00;;;;;;;;;;5101757;28;20023;-62
2021/10/26 01:12:23;;;;;;;6.75;4.82;;;;;;;;;;5104884;28;20024;-63
2021/10/26 01:14:49;;;;;;;8.73;5.32;;;;;;;;;;5104300;28;20054;-63
2021/10/26 01:17:15;;;;;;;6.43;5.15;;;;;;;;;;5104975;28;20106;-62
2021/10/26 01:19:46;;;;;;;7.07;5.38;;;;;;;;;;5103734;28;20035;-62
2021/10/26 01:22:11;;;;;;;7.30;5.50;;;;;;;;;;5106297;28;20035;-62
2021/10/26 01:24:37;;;;;;;10.90;6.47;;;;;;;;;;5103872;28;20057;-62
2021/10/26 01:27:02;;;;;;;5.30;4.78;;;;;;;;;;5102496;28;20118;-62
2021/10/26 01:29:28;;;;;;;6.30;5.10;;;;;;;;;;5104380;28;20115;-62
2021/10/26 01:31:53;;;;;;;7.88;5.40;;;;;;;;;;5101229;28;20040;-62
2021/10/26 01:34:19;;;;;;;6.07;5.32;;;;;;;;;;5099195;28;20036;-62
2021/10/26 01:36:44;;;;;;;8.60;7.53;;;;;;;;;;5105338;28;20042;-62
2021/10/26 01:39:09;;;;;;;5.55;4.75;;;;;;;;;;5106205;28;20028;-62
2021/10/26 01:41:35;;;;;;;9.02;6.20;;;;;;;;;;5104187;28;20039;-62
2021/10/26 01:44:00;;;;;;;5.35;4.72;;;;;;;;;;5102262;28;20070;-70
2021/10/26 01:46:26;;;;;;;7.60;6.15;;;;;;;;;;5102703;28;20175;-70
2021/10/26 01:48:51;;;;;;;7.40;5.00;;;;;;;;;;5103443;28;20040;-70
2021/10/26 01:51:17;;;;;;;6.20;5.60;;;;;;;;;;5101283;28;20119;-69
2021/10/26 01:53:43;;;;;;;6.90;5.55;;;;;;;;;;5105560;28;20480;-70
2021/10/26 01:56:09;;;;;;;8.82;5.50;;;;;;;;;;5102620;28;20089;-70
2021/10/26 01:58:35;;;;;;;6.53;5.55;;;;;;;;;;5104226;28;20108;-70
2021/10/26 02:01:00;;;;;;;7.78;5.72;;;;;;;;;;5086507;28;20103;-70
2021/10/26 02:03:26;;;;;;;4.40;3.88;;;;;;;;;;5102114;28;20054;-69
2021/10/26 02:05:52;;;;;;;6.60;4.95;;;;;;;;;;5106038;28;20059;-69
2021/10/26 02:08:17;;;;;;;7.30;5.32;;;;;;;;;;5104109;28;20063;-69
2021/10/26 02:10:43;;;;;;;7.93;7.13;;;;;;;;;;5106024;28;20123;-70
2021/10/26 02:13:08;;;;;;;7.07;5.45;;;;;;;;;;5107247;28;20763;-70
2021/10/26 02:15:33;;;;;;;5.32;4.78;;;;;;;;;;5107914;28;20081;-70
2021/10/26 02:17:59;;;;;;;6.22;4.82;;;;;;;;;;5106679;28;20560;-70
2021/10/26 02:20:24;;;;;;;6.90;5.38;;;;;;;;;;5103571;28;20042;-69
2021/10/26 02:22:50;;;;;;;5.00;4.50;;;;;;;;;;5091224;28;20136;-69
2021/10/26 02:25:15;;;;;;;6.15;5.55;;;;;;;;;;5087521;28;20040;-71
2021/10/26 02:27:40;;;;;;;5.28;4.45;;;;;;;;;;5104667;28;20471;-70
2021/10/26 02:30:06;;;;;;;7.22;5.38;;;;;;;;;;5100815;28;20031;-69
2021/10/26 02:32:32;;;;;;;4.75;4.13;;;;;;;;;;5103596;28;20023;-68
2021/10/26 02:34:57;;;;;;;4.38;3.97;;;;;;;;;;5104373;28;20044;-68
2021/10/26 02:37:23;;;;;;;7.78;5.13;;;;;;;;;;5101819;28;20067;-69
2021/10/26 02:39:48;;;;;;;7.20;4.18;;;;;;;;;;5106262;28;20049;-69
2021/10/26 02:42:13;;;;;;;7.00;4.55;;;;;;;;;;5089291;28;20059;-69
2021/10/26 02:44:39;;;;;;;7.38;5.30;;;;;;;;;;5109486;28;20031;-69
2021/10/26 02:47:04;;;;;;;5.45;4.13;;;;;;;;;;5104101;28;20044;-69
2021/10/26 02:49:30;;;;;;;9.73;6.32;;;;;;;;;;5107202;28;20094;-69
2021/10/26 02:51:56;;;;;;;4.53;4.13;;;;;;;;;;5108993;28;20032;-69
2021/10/26 02:54:21;;;;;;;6.65;4.85;;;;;;;;;;5103103;28;20411;-68
2021/10/26 02:56:47;;;;;;;6.97;4.57;;;;;;;;;;5103321;28;20545;-68
2021/10/26 02:59:12;;;;;;;5.00;3.78;;;;;;;;;;5104976;28;20039;-69
2021/10/26 03:01:38;;;;;;;6.00;4.65;;;;;;;;;;5104298;28;20909;-69
2021/10/26 03:04:04;;;;;;;8.60;5.03;;;;;;;;;;5104720;28;20027;-69
2021/10/26 03:06:29;;;;;;;5.28;4.32;;;;;;;;;;5107386;28;20036;-69
2021/10/26 03:08:54;;;;;;;6.47;4.72;;;;;;;;;;5106399;27;20377;-69
2021/10/26 03:11:20;;;;;;;4.25;3.85;;;;;;;;;;5107628;28;20120;-69
2021/10/26 03:13:45;;;;;;;10.90;5.05;;;;;;;;;;5105798;27;20027;-69
2021/10/26 03:16:11;;;;;;;7.13;5.53;;;;;;;;;;5107077;28;20058;-69
2021/10/26 03:18:36;;;;;;;6.85;4.80;;;;;;;;;;5106340;28;20035;-69
2021/10/26 03:21:02;;;;;;;5.68;4.82;;;;;;;;;;5103108;28;20085;-69
2021/10/26 03:23:28;;;;;;;5.30;4.75;;;;;;;;;;5106919;28;20067;-68
2021/10/26 03:25:54;;;;;;;5.20;4.70;;;;;;;;;;5106369;28;20115;-68
2021/10/26 03:28:20;;;;;;;7.13;5.43;;;;;;;;;;5106826;28;20028;-69
2021/10/26 03:30:46;;;;;;;6.07;4.63;;;;;;;;;;5107309;28;20027;-69
2021/10/26 03:33:11;;;;;;;5.90;4.78;;;;;;;;;;5103341;28;20346;-68
2021/10/26 03:35:37;;;;;;;6.15;4.80;;;;;;;;;;5101067;28;20066;-69
2021/10/26 03:38:03;;;;;;;4.55;4.03;;;;;;;;;;5105704;28;20035;-68
2021/10/26 03:40:29;;;;;;;8.43;5.40;;;;;;;;;;5105172;28;20023;-67
2021/10/26 03:42:54;;;;;;;6.55;4.85;;;;;;;;;;5087523;28;20054;-70
2021/10/26 03:45:19;;;;;;;5.65;4.85;;;;;;;;;;5107758;28;20031;-69
2021/10/26 03:47:45;;;;;;;5.20;4.70;;;;;;;;;;5107533;28;20046;-68
2021/10/26 03:50:12;;;;;;;5.50;4.45;;;;;;;;;;5106090;28;20031;-71
2021/10/26 03:52:38;;;;;;;6.55;5.45;;;;;;;;;;5105452;28;20044;-68
2021/10/26 03:55:05;;;;;;;9.18;5.60;;;;;;;;;;5103270;28;20035;-68
2021/10/26 03:57:30;;;;;;;5.70;5.15;;;;;;;;;;5104728;28;20032;-71
2021/10/26 03:59:56;;;;;;;5.68;4.05;;;;;;;;;;5102691;28;20031;-71
2021/10/26 04:02:26;;;;;;;6.10;4.72;;;;;;;;;;5107491;28;20126;-68
2021/10/26 04:04:56;;;;;;;5.38;4.43;;;;;;;;;;5103536;28;20357;-68
2021/10/26 04:07:21;;;;;;;5.10;4.60;;;;;;;;;;5103163;28;20066;-71
2021/10/26 04:09:51;;;;;;;6.57;4.63;;;;;;;;;;5091879;28;20035;-69
2021/10/26 04:12:26;;;;;;;6.63;5.25;;;;;;;;;;5106476;28;20043;-69
2021/10/26 04:14:56;;;;;;;6.13;4.20;;;;;;;;;;5104454;28;20028;-69
2021/10/26 04:17:27;;;;;;;6.30;4.57;;;;;;;;;;5108278;28;20038;-69
2021/10/26 04:19:58;;;;;;;4.30;3.53;;;;;;;;;;5106982;28;20277;-71
2021/10/26 04:22:24;;;;;;;5.10;4.47;;;;;;;;;;5105362;28;20516;-70
2021/10/26 04:24:50;;;;;;;4.65;3.83;;;;;;;;;;5109112;28;20032;-70
2021/10/26 04:27:16;;;;;;;5.85;4.53;;;;;;;;;;5083325;28;20472;-71
2021/10/26 04:29:42;;;;;;;4.97;4.45;;;;;;;;;;5102423;28;20036;-71
2021/10/26 04:32:10;;;;;;;8.18;4.43;;;;;;;;;;5103773;28;20114;-70
2021/10/26 04:34:36;;;;;;;5.18;4.60;;;;;;;;;;5104858;28;20035;-70
2021/10/26 04:37:03;;;;;;;4.90;4.50;;;;;;;;;;5104173;28;20035;-71
2021/10/26 04:39:28;;;;;;;4.63;4.05;;;;;;;;;;5106089;28;20066;-71
2021/10/26 04:41:54;;;;;;;4.13;3.72;;;;;;;;;;5103329;28;20055;-71
2021/10/26 04:44:19;;;;;;;5.75;4.07;;;;;;;;;;5104239;28;20039;-71
2021/10/26 04:46:45;;;;;;;5.47;3.50;;;;;;;;;;5105053;28;20049;-70
2021/10/26 04:49:10;;;;;;;4.78;3.70;;;;;;;;;;5101443;28;20039;-70
2021/10/26 04:51:36;;;;;;;9.43;4.18;;;;;;;;;;5106988;28;20403;-71
2021/10/26 04:54:01;;;;;;;4.72;4.30;;;;;;;;;;5105309;28;20357;-69
2021/10/26 04:56:27;;;;;;;9.77;4.43;;;;;;;;;;5102655;28;20435;-71
2021/10/26 04:58:52;;;;;;;6.90;3.97;;;;;;;;;;5103566;28;20042;-70
2021/10/26 05:01:18;;;;;;;4.50;3.80;;;;;;;;;;5100861;28;20114;-70
2021/10/26 05:03:43;;;;;;;4.53;3.45;;;;;;;;;;5101831;28;20031;-70
2021/10/26 05:06:09;;;;;;;5.57;4.82;;;;;;;;;;5105365;28;20074;-71
2021/10/26 05:08:34;;;;;;;3.72;3.40;;;;;;;;;;5105968;28;20028;-69
2021/10/26 05:11:00;;;;;;;4.53;3.42;;;;;;;;;;5102200;28;20035;-69
2021/10/26 05:13:29;;;;;;;9.15;5.10;;;;;;;;;;5102548;28;20598;-70
2021/10/26 05:15:56;;;;;;;6.07;4.28;;;;;;;;;;5101943;28;20047;-69
2021/10/26 05:18:22;;;;;;;5.75;5.13;;;;;;;;;;5105076;28;20563;-69
2021/10/26 05:20:48;;;;;;;5.30;4.80;;;;;;;;;;5105916;28;20032;-70
2021/10/26 05:23:14;;;;;;;15.35;13.88;;;;;;;;;;5104916;28;20028;-70
2021/10/26 05:25:39;;;;;;;12.85;8.43;;;;;;;;;;5087143;28;20368;-70
2021/10/26 05:28:07;;;;;;;10.13;6.30;;;;;;;;;;5102860;28;20449;-70
2021/10/26 05:30:32;;;;;;;6.60;5.93;;;;;;;;;;5104357;28;20655;-70
2021/10/26 05:32:58;;;;;;;5.50;4.28;;;;;;;;;;5090441;28;20053;-71
2021/10/26 05:35:23;;;;;;;4.65;3.90;;;;;;;;;;5087701;28;20118;-71
2021/10/26 05:37:49;;;;;;;6.10;3.78;;;;;;;;;;5103029;28;20118;-71
2021/10/26 05:40:14;;;;;;;4.78;4.30;;;;;;;;;;5100766;28;20036;-71
2021/10/26 05:42:40;;;;;;;6.20;4.57;;;;;;;;;;5106033;28;20031;-70
2021/10/26 05:45:05;;;;;;;4.25;3.67;;;;;;;;;;5102879;28;20031;-71
2021/10/26 05:47:32;;;;;;;3.72;3.13;;;;;;;;;;5104523;27;20031;-70
2021/10/26 05:49:57;;;;;;;7.38;4.22;;;;;;;;;;5104248;28;20122;-71
2021/10/26 05:52:23;;;;;;;4.80;3.67;;;;;;;;;;5104921;28;20110;-70
2021/10/26 05:54:49;;;;;;;3.75;3.13;;;;;;;;;;5089828;28;20043;-70
2021/10/26 05:57:15;;;;;;;5.93;4.45;;;;;;;;;;5102283;28;20024;-71
2021/10/26 05:59:41;;;;;;;5.03;4.03;;;;;;;;;;5105750;28;20039;-71
2021/10/26 06:02:07;;;;;;;4.53;3.25;;;;;;;;;;5102541;28;20032;-70
2021/10/26 06:04:32;;;;;;;4.57;4.07;;;;;;;;;;5103073;28;20035;-70
2021/10/26 06:06:57;;;;;;;7.53;3.65;;;;;;;;;;5086797;28;20031;-71
2021/10/26 06:09:23;;;;;;;3.80;3.40;;;;;;;;;;5100271;28;20042;-70
2021/10/26 06:11:51;;;;;;;5.55;4.05;;;;;;;;;;5104439;28;20027;-70
2021/10/26 06:14:16;;;;;;;5.18;3.55;;;;;;;;;;5105288;28;20031;-71
2021/10/26 06:16:42;;;;;;;4.88;3.70;;;;;;;;;;5100152;28;20031;-71
2021/10/26 06:19:09;;;;;;;4.47;3.75;;;;;;;;;;5101566;28;20054;-71
2021/10/26 06:21:34;;;;;;;4.10;3.70;;;;;;;;;;5103064;28;20024;-70
2021/10/26 06:24:01;;;;;;;6.75;5.32;;;;;;;;;;5101730;28;20039;-71
2021/10/26 06:26:28;;;;;;;4.25;3.67;;;;;;;;;;5102645;28;20035;-71
2021/10/26 06:28:55;;;;;;;4.07;3.33;;;;;;;;;;5102453;28;20039;-71
2021/10/26 06:31:20;;;;;;;5.00;4.00;;;;;;;;;;5104414;28;20035;-70
2021/10/26 06:33:47;;;;;;;9.70;5.30;;;;;;;;;;5104106;28;20032;-71
2021/10/26 06:36:12;;;;;;;6.07;4.20;;;;;;;;;;5102546;28;20629;-70
2021/10/26 06:38:38;;;;;;;4.88;4.38;;;;;;;;;;5104127;28;20043;-71
2021/10/26 06:41:04;;;;;;;4.85;4.22;;;;;;;;;;5083770;28;20039;-71
2021/10/26 06:43:31;;;;;;;6.35;4.18;;;;;;;;;;5098888;28;20043;-71
2021/10/26 06:45:56;;;;;;;4.72;3.63;;;;;;;;;;5105037;28;20034;-71
2021/10/26 06:48:22;;;;;;;4.18;3.78;;;;;;;;;;5104798;28;20031;-71
2021/10/26 06:50:49;;;;;;;5.85;4.53;;;;;;;;;;5105107;28;20058;-71
2021/10/26 06:53:14;;;;;;;4.70;4.05;;;;;;;;;;5088281;28;20048;-71
2021/10/26 06:55:40;;;;;;;5.45;4.22;;;;;;;;;;5103285;28;20027;-70
2021/10/26 06:58:05;;;;;;;4.78;3.72;;;;;;;;;;5101155;28;20028;-70
2021/10/26 07:00:31;;;;;;;7.32;4.38;;;;;;;;;;5104076;28;20023;-71
2021/10/26 07:02:57;;;;;;;4.78;4.05;;;;;;;;;;5100679;28;20023;-70
2021/10/26 07:05:24;;;;;;;4.30;3.90;;;;;;;;;;5099051;28;20039;-70
2021/10/26 07:07:51;;;;;;;8.18;4.20;;;;;;;;;;5106308;28;20024;-70
2021/10/26 07:10:17;;;;;;;4.35;3.67;;;;;;;;;;5103087;28;20123;-70
2021/10/26 07:12:44;;;;;;;5.57;3.42;;;;;;;;;;5102616;28;20060;-70
2021/10/26 07:15:11;;;;;;;4.72;3.88;;;;;;;;;;5104866;28;20038;-70
2021/10/26 07:17:38;;;;;;;4.35;3.90;;;;;;;;;;5102434;28;20092;-70
2021/10/26 07:20:07;;;;;;;3.90;3.13;;;;;;;;;;5102299;28;20031;-70
2021/10/26 07:22:33;;;;;;;4.32;3.78;;;;;;;;;;5101642;28;20778;-70
2021/10/26 07:25:03;;;;;;;4.45;3.60;;;;;;;;;;5100346;28;20035;-70
2021/10/26 07:27:29;;;;;;;9.10;5.00;;;;;;;;;;5104614;28;20031;-70
2021/10/26 07:29:54;;;;;;;3.75;3.25;;;;;;;;;;5101633;28;20028;-70
2021/10/26 07:32:20;;;;;;;6.80;3.67;;;;;;;;;;5103949;28;20108;-70
2021/10/26 07:34:46;;;;;;;4.13;3.72;;;;;;;;;;5101825;28;20043;-70
2021/10/26 07:37:13;;;;;;;4.50;3.67;;;;;;;;;;5105977;28;20028;-71
2021/10/26 07:39:48;;;;;;;3.22;2.92;;;;;;;;;;5103742;28;20172;-71
2021/10/26 07:42:15;;;;;;;4.53;3.55;;;;;;;;;;5104682;28;20138;-71
2021/10/26 07:44:41;;;;;;;3.63;3.10;;;;;;;;;;5107584;28;20043;-70
2021/10/26 07:47:08;;;;;;;4.47;3.53;;;;;;;;;;5106380;28;20027;-71
2021/10/26 07:49:33;;;;;;;4.65;3.55;;;;;;;;;;5104108;28;20473;-70
2021/10/26 07:51:59;;;;;;;4.97;3.83;;;;;;;;;;5109785;28;20044;-70
2021/10/26 07:54:25;;;;;;;4.70;3.83;;;;;;;;;;5105202;28;20046;-70
2021/10/26 07:56:54;;;;;;;4.18;3.25;;;;;;;;;;5106257;28;20036;-70
2021/10/26 07:59:21;;;;;;;9.63;4.78;;;;;;;;;;5104736;28;20499;-70
2021/10/26 08:01:47;;;;;;;5.55;3.63;;;;;;;;;;5103729;28;20068;-70
2021/10/26 08:04:13;;;;;;;4.05;3.65;;;;;;;;;;5106956;28;20093;-71
2021/10/26 08:06:41;;;;;;;4.50;3.75;;;;;;;;;;5106895;28;20050;-70
2021/10/26 08:09:06;;;;;;;4.63;3.75;;;;;;;;;;5106789;28;20028;-70
2021/10/26 08:11:34;;;;;;;4.32;3.85;;;;;;;;;;5104675;28;20369;-70
2021/10/26 08:14:00;;;;;;;4.53;3.63;;;;;;;;;;5093874;28;20042;-71
2021/10/26 08:16:25;;;;;;;5.05;3.95;;;;;;;;;;5105495;28;20039;-70
2021/10/26 08:18:50;;;;;;;5.53;3.90;;;;;;;;;;5104058;28;20028;-70
2021/10/26 08:21:16;;;;;;;5.47;4.30;;;;;;;;;;5106024;28;20464;-70
2021/10/26 08:23:42;;;;;;;4.88;4.30;;;;;;;;;;5106883;28;20023;-70
2021/10/26 08:26:16;;;;;;;4.05;3.65;;;;;;;;;;5103453;28;20039;-70
2021/10/26 08:28:42;;;;;;;5.00;4.50;;;;;;;;;;5103772;28;20548;-70
2021/10/26 08:31:18;;;;;;;5.13;4.25;;;;;;;;;;5108416;28;20048;-70
2021/10/26 08:34:09;;;;;;;7.20;5.40;;;;;;;;;;5092231;28;20043;-71
2021/10/26 08:36:36;;;;;;;5.70;3.92;;;;;;;;;;5101418;28;20115;-71
2021/10/26 08:39:03;;;;;;;9.13;3.70;;;;;;;;;;5103363;28;20027;-70
2021/10/26 08:41:31;;;;;;;5.10;4.10;;;;;;;;;;5093231;28;20119;-70
2021/10/26 08:43:57;;;;;;;3.67;3.00;;;;;;;;;;5106319;28;20108;-71
2021/10/26 08:46:23;;;;;;;5.15;4.65;;;;;;;;;;5106164;28;20548;-70
2021/10/26 08:48:50;;;;;;;5.00;3.97;;;;;;;;;;5092514;28;20027;-70
2021/10/26 08:51:17;;;;;;;4.47;3.67;;;;;;;;;;5099811;28;20520;-70
2021/10/26 08:53:44;;;;;;;5.68;3.58;;;;;;;;;;5106560;28;20409;-70
2021/10/26 08:56:11;;;;;;;5.18;4.28;;;;;;;;;;5106032;28;20032;-70
2021/10/26 08:58:36;;;;;;;6.40;4.28;;;;;;;;;;5104468;28;20496;-71
2021/10/26 09:01:04;;;;;;;4.32;3.67;;;;;;;;;;5107303;28;20107;-70
2021/10/26 09:03:34;;;;;;;4.47;3.53;;;;;;;;;;5104538;28;20042;-70
2021/10/26 09:06:00;;;;;;;4.60;4.18;;;;;;;;;;5105476;28;20469;-70
2021/10/26 09:08:26;;;;;;;5.18;4.05;;;;;;;;;;5105408;28;20096;-70
2021/10/26 09:10:53;;;;;;;4.90;4.07;;;;;;;;;;5104581;28;20040;-70
2021/10/26 09:19:18;;;;;;;3.40;3.03;;;;;;;;;;5101699;28;20023;-70
2021/10/26 09:21:54;;;;;;;3.92;3.33;;;;;;;;;;5104095;28;20108;-70
2021/10/26 09:24:19;;;;;;;4.70;4.20;;;;;;;;;;5104571;28;20031;-70
2021/10/26 09:26:52;;;;;;;3.33;3.00;;;;;;;;;;5099889;28;20039;-70
2021/10/26 09:29:22;;;;;;;4.30;3.72;;;;;;;;;;5099737;28;20047;-70
2021/10/26 09:31:48;;;;;;;3.90;3.50;;;;;;;;;;5102851;28;20054;-70
2021/10/26 09:34:18;;;;;;;6.35;4.13;;;;;;;;;;5101476;28;20035;-70
2021/10/26 09:36:47;;;;;;;5.22;4.72;;;;;;;;;;5101421;28;20039;-70
2021/10/26 09:39:16;;;;;;;5.22;3.80;;;;;;;;;;5102339;28;20082;-69
2021/10/26 09:41:50;;;;;;;5.72;4.30;;;;;;;;;;5104864;28;20031;-69
2021/10/26 09:44:18;;;;;;;4.68;3.95;;;;;;;;;;5103797;28;20405;-70
2021/10/26 09:46:54;;;;;;;6.78;4.38;;;;;;;;;;5087425;28;20035;-70
2021/10/26 09:49:25;;;;;;;4.35;3.70;;;;;;;;;;5101485;28;20034;-69
2021/10/26 09:52:19;;;;;;;3.72;3.17;;;;;;;;;;5089695;28;20055;-69
2021/10/26 09:57:49;;;;;;;3.85;3.33;;;;;;;;;;5098926;28;20052;-69
2021/10/26 10:00:29;;;;;;;3.33;2.95;;;;;;;;;;5101573;28;20373;-69
2021/10/26 10:03:06;;;;;;;5.88;3.35;;;;;;;;;;5098529;28;20032;-70
2021/10/26 10:05:50;;;;;;;3.97;3.58;;;;;;;;;;5103066;28;20028;-69
2021/10/26 10:08:16;;;;;;;3.42;2.97;;;;;;;;;;5103058;28;20055;-69
2021/10/26 10:10:42;;;;;;;3.38;2.83;;;;;;;;;;5101860;28;20035;-68
2021/10/26 10:13:07;;;;;;;5.45;3.00;;;;;;;;;;5106540;28;20039;-69
2021/10/26 10:15:33;;;;;;;3.67;2.58;;;;;;;;;;5091701;28;20042;-70
2021/10/26 10:18:00;;;;;;;4.18;3.25;;;;;;;;;;5090054;28;20039;-70
2021/10/26 10:20:26;;;;;;;3.22;2.85;;;;;;;;;;5104602;28;20077;-69
2021/10/26 10:22:52;;;;;;;3.10;2.80;;;;;;;;;;5087521;28;20449;-63
2021/10/26 10:25:18;;;;;;;3.88;3.15;;;;;;;;;;5100811;28;20068;-63
2021/10/26 10:27:47;;;;;;;3.17;2.50;;;;;;;;;;5104464;28;20074;-62
2021/10/26 10:30:13;;;;;;;3.45;2.70;;;;;;;;;;5103461;28;20058;-62
2021/10/26 10:32:40;;;;;;;3.83;3.42;;;;;;;;;;5087361;28;20598;-62
2021/10/26 10:35:12;;;;;;;3.53;2.75;;;;;;;;;;5104148;28;20437;-64
2021/10/26 10:37:41;;;;;;;4.60;3.28;;;;;;;;;;5103500;28;20050;-60
2021/10/26 10:40:07;;;;;;;3.45;3.13;;;;;;;;;;5103223;28;20032;-60
2021/10/26 10:42:51;;;;;;;3.35;2.85;;;;;;;;;;5104112;28;20050;-62
2021/10/26 10:45:32;;;;;;;3.53;3.22;;;;;;;;;;5102128;28;20050;-63
2021/10/26 10:47:58;;;;;;;5.40;3.35;;;;;;;;;;5089331;28;20036;-63
2021/10/26 10:50:26;;;;;;;3.78;3.35;;;;;;;;;;5103002;28;20032;-63
2021/10/26 10:53:19;;;;;;;3.60;3.22;;;;;;;;;;5105875;28;20119;-63
2021/10/26 10:55:51;;;;;;;4.00;3.00;;;;;;;;;;5103522;28;20097;-63
2021/10/26 10:58:28;;;;;;;3.05;2.60;;;;;;;;;;5101776;28;20047;-62
2021/10/26 11:01:36;;;;;;;3.30;2.80;;;;;;;;;;5106032;28;20046;-62
2021/10/26 11:04:27;;;;;;;4.78;3.40;;;;;;;;;;5109726;28;20055;-63
2021/10/26 11:06:56;;;;;;;4.30;3.30;;;;;;;;;;5081939;28;20109;-63
2021/10/26 11:09:31;;;;;;;3.25;2.95;;;;;;;;;;5108690;28;20493;-63
2021/10/26 11:12:18;;;;;;;3.05;2.60;;;;;;;;;;5107371;28;20072;-62
2021/10/26 11:14:55;;;;;;;4.45;2.72;;;;;;;;;;5077247;28;20107;-62
2021/10/26 11:17:33;;;;;;;4.20;3.25;;;;;;;;;;5091433;28;20110;-62
2021/10/26 11:20:00;;;;;;;3.95;3.55;;;;;;;;;;5088169;28;20035;-62
2021/10/26 11:22:53;;;;;;;3.67;3.13;;;;;;;;;;5104923;28;20515;-62
2021/10/26 11:25:27;;;;;;;3.58;3.05;;;;;;;;;;5108479;28;20031;-62
2021/10/26 11:27:57;;;;;;;3.25;2.90;;;;;;;;;;5093929;28;20035;-61
2021/10/26 11:30:29;;;;;;;4.63;3.05;;;;;;;;;;5108889;28;20032;-62
2021/10/26 11:33:23;;;;;;;4.38;3.25;;;;;;;;;;5107267;28;20042;-62
2021/10/26 11:36:08;;;;;;;3.55;2.90;;;;;;;;;;5088664;28;20350;-62
2021/10/26 11:38:50;;;;;;;3.78;2.78;;;;;;;;;;5109154;28;20035;-63
2021/10/26 11:41:21;;;;;;;4.88;3.40;;;;;;;;;;5105773;28;20024;-62
2021/10/26 11:44:03;;;;;;;5.55;3.10;;;;;;;;;;5101901;28;20594;-63
2021/10/26 11:46:32;;;;;;;2.70;2.17;;;;;;;;;;5107405;28;20041;-63
2021/10/26 11:49:09;;;;;;;3.13;2.50;;;;;;;;;;5107483;28;20473;-62
2021/10/26 11:51:45;;;;;;;3.58;2.83;;;;;;;;;;5108118;28;20027;-62
2021/10/26 11:54:14;;;;;;;3.15;2.63;;;;;;;;;;5103559;28;20563;-62
2021/10/26 11:56:51;;;;;;;3.83;3.25;;;;;;;;;;5107935;28;20031;-62
2021/10/26 11:59:23;;;;;;;3.53;2.85;;;;;;;;;;5103445;28;20041;-63
2021/10/26 12:01:52;;;;;;;3.83;3.10;;;;;;;;;;5093638;28;20092;-63
2021/10/26 12:04:26;;;;;;;3.25;2.72;;;;;;;;;;5104333;28;20640;-63
2021/10/26 12:07:04;;;;;;;3.40;3.03;;;;;;;;;;5102537;28;20050;-62
2021/10/26 12:09:41;;;;;;;3.45;2.92;;;;;;;;;;5103641;28;20039;-63
2021/10/26 12:12:09;;;;;;;3.00;2.50;;;;;;;;;;5104071;28;20043;-62
2021/10/26 12:14:36;;;;;;;3.30;2.88;;;;;;;;;;5100802;28;20040;-62
2021/10/26 12:17:08;;;;;;;4.03;2.90;;;;;;;;;;5107033;27;20031;-63
2021/10/26 12:19:36;;;;;;;2.88;2.30;;;;;;;;;;5102444;28;20078;-62
2021/10/26 12:22:02;;;;;;;3.55;2.90;;;;;;;;;;5103729;27;20023;-62
2021/10/26 12:24:32;;;;;;;3.70;2.97;;;;;;;;;;5104526;27;20129;-62
2021/10/26 12:27:07;;;;;;;4.38;2.60;;;;;;;;;;5104138;28;20388;-62
2021/10/26 12:29:37;;;;;;;3.03;2.42;;;;;;;;;;5104299;28;20042;-63
2021/10/26 12:32:04;;;;;;;2.78;2.05;;;;;;;;;;5104235;28;20032;-63
2021/10/26 12:34:46;;;;;;;3.17;2.13;;;;;;;;;;5107077;28;20031;-63
2021/10/26 12:37:33;;;;;;;2.83;2.38;;;;;;;;;;5085834;28;20073;-63
2021/10/26 12:40:09;;;;;;;2.88;2.35;;;;;;;;;;5103122;28;20102;-63
2021/10/26 12:42:41;;;;;;;2.90;2.30;;;;;;;;;;5102317;28;20032;-63
2021/10/26 12:45:13;;;;;;;3.45;2.67;;;;;;;;;;5104769;28;20558;-63
2021/10/26 12:47:59;;;;;;;3.42;2.10;;;;;;;;;;5105022;28;20156;-63
2021/10/26 12:50:33;;;;;;;3.28;2.72;;;;;;;;;;5107027;28;20031;-63
2021/10/26 12:53:39;;;;;;;2.55;2.03;;;;;;;;;;5105854;28;20469;-70
2021/10/26 12:56:26;;;;;;;2.60;2.10;;;;;;;;;;5105593;28;20031;-70
2021/10/26 12:58:53;;;;;;;2.50;1.73;;;;;;;;;;5105662;28;20170;-70
2021/10/26 13:01:24;;;;;;;2.90;2.22;;;;;;;;;;5104189;27;20703;-70
2021/10/26 13:04:20;;;;;;;3.67;2.25;;;;;;;;;;5084625;28;20036;-70
2021/10/26 13:06:55;;;;;;;2.65;1.98;;;;;;;;;;5103748;28;20105;-70
2021/10/26 13:09:50;;;;;;;2.83;2.13;;;;;;;;;;5104831;28;20027;-63
2021/10/26 13:12:24;;;;;;;2.50;1.90;;;;;;;;;;5100987;28;20346;-63
2021/10/26 13:15:21;;;;;;;2.60;2.05;;;;;;;;;;5102376;28;20049;-64
2021/10/26 13:17:50;;;;;;;2.70;2.17;;;;;;;;;;5095845;28;20380;-63
2021/10/26 13:20:31;;;;;;;2.80;2.33;;;;;;;;;;5103306;28;20661;-63
2021/10/26 13:23:14;;;;;;;2.53;2.00;;;;;;;;;;5087579;28;20028;-63
2021/10/26 13:25:52;;;;;;;2.72;2.13;;;;;;;;;;5101820;28;20035;-63
2021/10/26 13:28:19;;;;;;;3.70;2.13;;;;;;;;;;5102029;28;20055;-64
2021/10/26 13:30:53;;;;;;;2.90;2.30;;;;;;;;;;5103484;28;20037;-64
2021/10/26 13:33:20;;;;;;;3.28;2.75;;;;;;;;;;5105210;28;20031;-63
2021/10/26 13:35:46;;;;;;;3.03;2.47;;;;;;;;;;5101682;28;20051;-63
2021/10/26 13:38:12;;;;;;;3.00;2.45;;;;;;;;;;5100349;28;20043;-63
2021/10/26 13:40:45;;;;;;;2.75;2.08;;;;;;;;;;5100350;28;20147;-63
2021/10/26 13:43:12;;;;;;;3.28;2.65;;;;;;;;;;5082282;28;20036;-64
2021/10/26 13:45:39;;;;;;;2.60;2.10;;;;;;;;;;5102471;28;20036;-63
2021/10/26 13:48:07;;;;;;;2.85;2.45;;;;;;;;;;5104287;28;20622;-63
2021/10/26 13:50:33;;;;;;;3.03;2.42;;;;;;;;;;5102561;28;20097;-62
2021/10/26 13:52:58;;;;;;;2.60;1.90;;;;;;;;;;5102964;28;20036;-63
2021/10/26 13:55:24;;;;;;;2.95;2.22;;;;;;;;;;5102216;28;20093;-63
2021/10/26 13:57:49;;;;;;;2.90;2.28;;;;;;;;;;5104636;28;20043;-63
2021/10/26 14:00:16;;;;;;;3.28;2.33;;;;;;;;;;5102617;28;20024;-63
2021/10/26 14:02:44;;;;;;;2.70;2.03;;;;;;;;;;5103240;28;20031;-63
2021/10/26 14:05:12;;;;;;;2.90;2.20;;;;;;;;;;5098719;28;20046;-62
2021/10/26 14:07:38;;;;;;;2.50;1.80;;;;;;;;;;5100309;28;20031;-62
2021/10/26 14:10:06;;;;;;;2.88;2.42;;;;;;;;;;5098705;28;20042;-62
2021/10/26 14:12:32;;;;;;;2.70;2.10;;;;;;;;;;5103945;28;20476;-64
2021/10/26 14:14:58;;;;;;;2.72;2.20;;;;;;;;;;5104962;28;20032;-63
2021/10/26 14:17:23;;;;;;;4.05;2.40;;;;;;;;;;5105164;28;20031;-63
2021/10/26 14:19:49;;;;;;;2.90;2.25;;;;;;;;;;5101687;28;20504;-63
2021/10/26 14:22:16;;;;;;;2.70;1.90;;;;;;;;;;5103899;28;20031;-64
2021/10/26 14:24:42;;;;;;;3.20;2.28;;;;;;;;;;5099493;28;20032;-63
2021/10/26 14:27:07;;;;;;;2.67;2.00;;;;;;;;;;5099682;28;20051;-63
2021/10/26 14:29:33;;;;;;;3.15;2.50;;;;;;;;;;5099792;28;20035;-64
2021/10/26 14:31:59;;;;;;;6.43;2.55;;;;;;;;;;5102495;28;20126;-63
2021/10/26 14:34:25;;;;;;;3.13;2.45;;;;;;;;;;5100761;28;20032;-64
2021/10/26 14:36:54;;;;;;;2.60;2.00;;;;;;;;;;5105251;28;20360;-63
2021/10/26 14:39:28;;;;;;;3.10;2.20;;;;;;;;;;5103336;28;20110;-63
2021/10/26 14:53:08;;;;;;;2.88;2.42;;;;;;;;;;5105465;28;20047;-63
2021/10/26 14:58:17;;;;;;;3.22;2.55;;;;;;;;;;5105360;28;20115;-64
2021/10/26 15:00:42;;;;;;;2.85;2.13;;;;;;;;;;5106895;28;20390;-64
2021/10/26 15:03:07;;;;;;;3.70;2.40;;;;;;;;;;5106190;28;20036;-64
2021/10/26 15:05:33;;;;;;;3.65;2.38;;;;;;;;;;5109577;28;20039;-61
2021/10/26 15:07:59;;;;;;;2.95;2.13;;;;;;;;;;5104093;28;20039;-64
2021/10/26 15:12:58;;;;;;;2.60;2.00;;;;;;;;;;5108654;28;20034;-62
2021/10/26 15:15:24;;;;;;;2.92;2.28;;;;;;;;;;5110032;28;20119;-62
2021/10/26 15:17:51;;;;;;;2.80;2.30;;;;;;;;;;5103973;28;20066;-62